createdAt,value
2019-04-30T00:02:22.483Z,101482.16
2019-04-30T00:04:50.029Z,101489.60
2019-04-30T00:07:19.035Z,101486.95
2019-04-30T00:09:49.350Z,101478.61
2019-04-30T00:12:15.735Z,101477.13
2019-04-30T00:14:44.810Z,101481.75
2019-04-30T00:17:15.959Z,101479.13
2019-04-30T00:19:40.572Z,101480.97
2019-04-30T00:22:07.481Z,101480.67
2019-04-30T00:24:35.482Z,101484.56
2019-04-30T00:27:02.512Z,101471.55
2019-04-30T00:29:30.999Z,101471.97
2019-04-30T00:32:04.600Z,101475.92
2019-04-30T00:34:30.918Z,101478.55
2019-04-30T00:36:56.084Z,101483.95
2019-04-30T00:39:23.090Z,101482.98
2019-04-30T00:41:50.004Z,101485.36
2019-04-30T00:44:19.854Z,101480.55
2019-04-30T00:46:47.939Z,101483.39
2019-04-30T00:49:18.381Z,101485.70
2019-04-30T00:51:45.290Z,101489.08
2019-04-30T00:54:12.447Z,101481.33
2019-04-30T00:56:39.358Z,101479.99
2019-04-30T00:59:10.333Z,101483.57
2019-04-30T01:01:53.790Z,101477.72
2019-04-30T01:04:28.096Z,101479.52
2019-04-30T01:06:59.907Z,101475.17
2019-04-30T01:09:25.609Z,101477.72
2019-04-30T01:11:52.513Z,101469.42
2019-04-30T01:14:23.190Z,101460.30
2019-04-30T01:16:49.413Z,101462.51
2019-04-30T01:19:27.625Z,101460.34
2019-04-30T01:21:47.126Z,101450.63
2019-04-30T01:24:14.338Z,101453.24
2019-04-30T01:26:41.458Z,101454.21
2019-04-30T01:29:10.194Z,101451.19
2019-04-30T01:31:40.621Z,101449.91
2019-04-30T01:34:10.331Z,101447.78
2019-04-30T01:36:34.873Z,101456.15
2019-04-30T01:39:01.803Z,101448.67
2019-04-30T01:41:31.387Z,101452.12
2019-04-30T01:43:58.524Z,101450.02
2019-04-30T01:46:25.577Z,101454.88
2019-04-30T01:48:52.487Z,101449.98
2019-04-30T01:51:21.789Z,101451.78
2019-04-30T01:53:48.528Z,101452.33
2019-04-30T01:56:31.720Z,101455.28
2019-04-30T01:59:02.847Z,101456.25
2019-04-30T02:01:31.171Z,101455.73
2019-04-30T02:03:58.577Z,101454.50
2019-04-30T02:06:25.643Z,101444.03
2019-04-30T02:08:52.570Z,101455.80
2019-04-30T02:11:19.511Z,101453.50
2019-04-30T02:13:46.577Z,101450.84
2019-04-30T02:16:13.511Z,101450.61
2019-04-30T02:18:40.816Z,101458.28
2019-04-30T02:21:08.948Z,101449.64
2019-04-30T02:23:36.571Z,101446.65
2019-04-30T02:26:03.500Z,101442.63
2019-04-30T02:28:30.411Z,101444.34
2019-04-30T02:30:59.907Z,101445.27
2019-04-30T02:33:27.046Z,101439.77
2019-04-30T02:36:22.769Z,101435.50
2019-04-30T02:38:51.961Z,101439.91
2019-04-30T02:41:19.647Z,101439.14
2019-04-30T02:43:49.989Z,101440.92
2019-04-30T02:46:19.226Z,101437.03
2019-04-30T02:48:50.447Z,101441.02
2019-04-30T02:51:20.093Z,101433.59
2019-04-30T02:54:23.976Z,101437.54
2019-04-30T02:57:11.766Z,101434.69
2019-04-30T03:00:00.019Z,101431.23
2019-04-30T03:02:29.189Z,101436.91
2019-04-30T03:04:56.290Z,101433.55
2019-04-30T03:07:23.304Z,101438.81
2019-04-30T03:09:50.197Z,101428.92
2019-04-30T03:12:17.163Z,101430.66
2019-04-30T03:14:44.084Z,101430.66
2019-04-30T03:17:21.050Z,101427.73
2019-04-30T03:19:53.563Z,101425.19
2019-04-30T03:22:23.380Z,101430.80
2019-04-30T03:24:50.383Z,101437.24
2019-04-30T03:27:17.342Z,101441.89
2019-04-30T03:29:44.264Z,101442.48
2019-04-30T03:32:13.323Z,101440.36
2019-04-30T03:34:42.058Z,101445.95
2019-04-30T03:37:09.946Z,101435.12
2019-04-30T03:39:39.687Z,101444.06
2019-04-30T03:42:05.917Z,101438.10
2019-04-30T03:44:32.935Z,101447.69
2019-04-30T03:46:59.877Z,101442.05
2019-04-30T03:49:26.815Z,101447.59
2019-04-30T03:51:53.770Z,101442.38
2019-04-30T03:54:20.691Z,101445.95
2019-04-30T03:56:50.202Z,101447.63
2019-04-30T03:59:19.705Z,101446.75
2019-04-30T04:02:12.282Z,101451.55
2019-04-30T04:04:41.687Z,101451.01
2019-04-30T04:07:20.327Z,101448.94
2019-04-30T04:09:54.388Z,101454.11
2019-04-30T04:12:21.497Z,101450.95
2019-04-30T04:14:50.845Z,101456.63
2019-04-30T04:17:20.087Z,101452.36
2019-04-30T04:19:49.476Z,101453.20
2019-04-30T04:22:20.318Z,101455.00
2019-04-30T04:24:46.050Z,101458.84
2019-04-30T04:27:12.985Z,101461.48
2019-04-30T04:29:40.437Z,101460.57
2019-04-30T04:32:10.422Z,101460.98
2019-04-30T04:34:36.298Z,101456.63
2019-04-30T04:37:03.261Z,101459.69
2019-04-30T04:39:30.180Z,101468.48
2019-04-30T04:41:59.799Z,101460.25
2019-04-30T04:44:25.979Z,101462.34
2019-04-30T04:46:53.016Z,101461.55
2019-04-30T04:49:20.589Z,101462.81
2019-04-30T04:51:49.276Z,101463.77
2019-04-30T04:54:16.520Z,101471.06
2019-04-30T04:56:43.470Z,101471.45
2019-04-30T04:59:10.496Z,101471.06
2019-04-30T05:01:38.754Z,101465.38
2019-04-30T05:04:05.850Z,101467.08
2019-04-30T05:06:32.807Z,101473.08
2019-04-30T05:09:01.697Z,101469.29
2019-04-30T05:11:29.321Z,101465.00
2019-04-30T05:13:58.940Z,101465.35
2019-04-30T05:16:26.087Z,101473.60
2019-04-30T05:18:53.053Z,101467.47
2019-04-30T05:21:19.986Z,101468.72
2019-04-30T05:23:46.935Z,101475.28
2019-04-30T05:26:13.869Z,101473.08
2019-04-30T05:28:40.823Z,101468.80
2019-04-30T05:31:08.747Z,101471.70
2019-04-30T05:33:35.808Z,101473.90
2019-04-30T05:36:02.759Z,101473.01
2019-04-30T05:38:31.312Z,101477.42
2019-04-30T05:40:59.582Z,101475.98
2019-04-30T05:43:26.617Z,101472.98
2019-04-30T05:45:53.536Z,101482.93
2019-04-30T05:48:20.478Z,101480.42
2019-04-30T05:50:51.491Z,101481.27
2019-04-30T05:53:16.271Z,101483.92
2019-04-30T05:55:43.191Z,101487.73
2019-04-30T05:58:10.138Z,101483.84
2019-04-30T06:00:37.063Z,101490.51
2019-04-30T06:03:04.002Z,101484.32
2019-04-30T06:05:30.929Z,101488.66
2019-04-30T06:07:59.337Z,101498.58
2019-04-30T06:10:33.638Z,101496.93
2019-04-30T06:13:10.765Z,101500.92
2019-04-30T06:15:45.697Z,101501.89
2019-04-30T06:18:13.969Z,101505.75
2019-04-30T06:20:41.055Z,101510.14
2019-04-30T06:23:09.511Z,101517.50
2019-04-30T06:25:55.558Z,101520.25
2019-04-30T06:28:06.314Z,101521.94
2019-04-30T06:30:33.730Z,101519.77
2019-04-30T06:33:01.396Z,101519.70
2019-04-30T06:35:29.444Z,101518.53
2019-04-30T06:37:58.783Z,101516.81
2019-04-30T06:40:25.455Z,101520.69
2019-04-30T06:42:52.517Z,101519.34
2019-04-30T06:45:19.439Z,101518.88
2019-04-30T06:47:48.928Z,101524.81
2019-04-30T06:50:16.213Z,101520.79
2019-04-30T06:52:54.211Z,101515.06
2019-04-30T06:55:12.340Z,101512.14
2019-04-30T06:57:39.258Z,101516.71
2019-04-30T07:00:06.617Z,101519.57
2019-04-30T07:02:33.559Z,101516.16
2019-04-30T07:05:00.515Z,101523.16
2019-04-30T07:07:37.087Z,101523.34
2019-04-30T07:10:02.739Z,101515.13
2019-04-30T07:12:55.002Z,101519.82
2019-04-30T07:15:21.965Z,101513.62
2019-04-30T07:17:49.262Z,101513.03
2019-04-30T07:20:16.354Z,101517.69
2019-04-30T07:22:49.669Z,101520.38
2019-04-30T07:25:12.149Z,101519.74
2019-04-30T07:27:40.079Z,101515.35
2019-04-30T07:30:09.763Z,101514.78
2019-04-30T07:32:36.353Z,101510.72
2019-04-30T07:35:03.659Z,101518.43
2019-04-30T07:37:30.599Z,101519.83
2019-04-30T07:39:58.886Z,101517.25
2019-04-30T07:42:25.962Z,101526.61
2019-04-30T07:44:53.096Z,101522.52
2019-04-30T07:47:20.003Z,101525.86
2019-04-30T07:52:16.554Z,101531.47
2019-04-30T07:54:43.838Z,101525.11
2019-04-30T07:57:10.759Z,101525.94
2019-04-30T07:59:39.686Z,101533.49
2019-04-30T08:02:12.242Z,101528.67
2019-04-30T08:04:53.389Z,101524.55
2019-04-30T08:07:20.713Z,101525.44
2019-04-30T08:09:35.522Z,101526.91
2019-04-30T08:09:49.316Z,101530.55
2019-04-30T08:12:25.086Z,101524.38
2019-04-30T08:14:45.263Z,101529.53
2019-04-30T08:17:13.165Z,101524.50
2019-04-30T08:19:41.116Z,101523.03
2019-04-30T08:22:09.587Z,101529.19
2019-04-30T08:24:36.663Z,101531.58
2019-04-30T08:27:03.664Z,101526.55
2019-04-30T08:29:30.639Z,101528.69
2019-04-30T08:31:59.309Z,101531.72
2019-04-30T08:34:26.436Z,101534.92
2019-04-30T08:36:53.405Z,101530.93
2019-04-30T08:39:20.330Z,101536.86
2019-04-30T08:41:49.225Z,101538.55
2019-04-30T08:44:16.109Z,101537.23
2019-04-30T08:46:43.042Z,101539.17
2019-04-30T08:49:10.316Z,101540.25
2019-04-30T08:51:38.785Z,101544.85
2019-04-30T08:54:06.239Z,101543.96
2019-04-30T08:56:33.183Z,101546.81
2019-04-30T08:59:00.100Z,101548.11
2019-04-30T09:01:29.211Z,101542.42
2019-04-30T09:03:55.878Z,101535.09
2019-04-30T09:06:25.481Z,101537.61
2019-04-30T09:08:55.080Z,101532.81
2019-04-30T09:11:28.338Z,101538.24
2019-04-30T09:13:50.842Z,101526.09
2019-04-30T09:16:19.455Z,101530.31
2019-04-30T09:18:46.501Z,101526.11
2019-04-30T09:21:13.456Z,101532.30
2019-04-30T09:23:49.454Z,101534.41
2019-04-30T09:26:09.227Z,101532.98
2019-04-30T09:28:36.141Z,101536.52
2019-04-30T09:31:03.196Z,101532.98
2019-04-30T09:33:30.196Z,101530.48
2019-04-30T09:35:57.170Z,101531.72
2019-04-30T09:38:24.092Z,101527.21
2019-04-30T09:40:51.031Z,101525.16
2019-04-30T09:43:18.790Z,101526.60
2019-04-30T09:45:45.925Z,101518.59
2019-04-30T09:48:12.851Z,101517.00
2019-04-30T09:50:39.906Z,101522.16
2019-04-30T09:53:07.191Z,101511.63
2019-04-30T09:55:34.280Z,101510.84
2019-04-30T09:58:01.201Z,101502.27
2019-04-30T10:00:29.554Z,101495.06
2019-04-30T10:02:59.856Z,101500.54
2019-04-30T10:05:29.053Z,101497.75
2019-04-30T10:07:56.090Z,101498.45
2019-04-30T10:10:28.929Z,101497.14
2019-04-30T10:12:56.089Z,101495.51
2019-04-30T10:15:42.724Z,101487.41
2019-04-30T10:18:09.685Z,101484.75
2019-04-30T10:20:48.413Z,101486.22
2019-04-30T10:23:15.344Z,101488.02
2019-04-30T10:25:42.423Z,101484.89
2019-04-30T10:28:10.032Z,101488.84
2019-04-30T10:30:37.331Z,101483.39
2019-04-30T10:33:05.317Z,101474.17
2019-04-30T10:35:32.572Z,101467.41
2019-04-30T10:37:59.674Z,101463.93
2019-04-30T10:40:28.572Z,101464.59
2019-04-30T10:42:55.523Z,101461.67
2019-04-30T10:45:22.453Z,101459.45
2019-04-30T10:47:49.445Z,101454.23
2019-04-30T10:50:16.497Z,101461.52
2019-04-30T10:52:43.454Z,101453.22
2019-04-30T10:55:10.587Z,101458.47
2019-04-30T10:57:39.525Z,101454.68
2019-04-30T11:00:11.252Z,101452.91
2019-04-30T11:02:38.693Z,101454.19
2019-04-30T11:05:05.924Z,101444.31
2019-04-30T11:07:33.557Z,101449.36
2019-04-30T11:10:00.483Z,101449.69
2019-04-30T11:12:29.077Z,101446.05
2019-04-30T11:14:56.261Z,101434.19
2019-04-30T11:17:23.440Z,101448.94
2019-04-30T11:19:50.849Z,101443.37
2019-04-30T11:22:18.018Z,101435.05
2019-04-30T11:24:56.663Z,101432.75
2019-04-30T11:27:14.469Z,101424.73
2019-04-30T11:29:42.054Z,101426.84
2019-04-30T11:32:18.333Z,101426.84
2019-04-30T11:34:45.437Z,101422.02
2019-04-30T11:37:12.537Z,101417.24
2019-04-30T11:39:39.619Z,101424.06
2019-04-30T11:42:06.610Z,101418.34
2019-04-30T11:44:33.552Z,101419.23
2019-04-30T11:47:25.077Z,101410.22
2019-04-30T11:49:52.236Z,101414.05
2019-04-30T11:52:19.202Z,101407.78
2019-04-30T11:54:51.347Z,101399.39
2019-04-30T11:57:15.022Z,101396.91
2019-04-30T12:00:00.399Z,101392.66
2019-04-30T12:02:56.613Z,101386.34
2019-04-30T12:05:23.556Z,101385.20
2019-04-30T12:08:09.567Z,101377.99
2019-04-30T12:10:58.409Z,101374.91
2019-04-30T12:13:26.595Z,101375.39
2019-04-30T12:15:54.254Z,101367.59
2019-04-30T12:18:21.314Z,101358.44
2019-04-30T12:20:48.277Z,101360.53
2019-04-30T12:23:16.311Z,101358.02
2019-04-30T12:25:43.234Z,101357.95
2019-04-30T12:28:10.186Z,101356.29
2019-04-30T12:30:39.060Z,101354.25
2019-04-30T12:33:06.036Z,101351.69
2019-04-30T12:35:33.010Z,101353.30
2019-04-30T12:37:59.987Z,101351.36
2019-04-30T12:40:30.098Z,101347.58
2019-04-30T12:42:55.747Z,101342.12
2019-04-30T12:45:22.759Z,101350.23
2019-04-30T12:47:54.320Z,101339.59
2019-04-30T12:50:26.598Z,101346.30
2019-04-30T12:52:59.459Z,101335.77
2019-04-30T12:55:51.993Z,101334.69
2019-04-30T12:58:20.700Z,101337.91
2019-04-30T13:00:49.156Z,101331.69
2019-04-30T13:03:16.199Z,101324.11
2019-04-30T13:05:43.296Z,101325.44
2019-04-30T13:08:11.025Z,101326.33
2019-04-30T13:10:38.940Z,101314.85
2019-04-30T13:13:06.811Z,101312.36
2019-04-30T13:15:34.234Z,101311.89
2019-04-30T13:18:01.198Z,101304.84
2019-04-30T13:20:29.292Z,101305.61
2019-04-30T13:22:56.469Z,101304.00
2019-04-30T13:25:32.474Z,101303.45
2019-04-30T13:27:55.439Z,101299.31
2019-04-30T13:30:24.316Z,101291.20
2019-04-30T13:33:06.311Z,101280.41
2019-04-30T13:35:33.379Z,101280.33
2019-04-30T13:38:09.421Z,101286.84
2019-04-30T13:40:45.359Z,101277.86
2019-04-30T13:43:12.793Z,101272.11
2019-04-30T13:45:39.752Z,101267.33
2019-04-30T13:48:08.808Z,101265.83
2019-04-30T13:50:35.569Z,101267.83
2019-04-30T13:53:02.573Z,101266.84
2019-04-30T13:55:42.490Z,101265.58
2019-04-30T13:57:58.481Z,101254.12
2019-04-30T14:00:27.337Z,101256.13
2019-04-30T14:03:02.891Z,101249.17
2019-04-30T14:05:29.997Z,101252.88
2019-04-30T14:08:10.383Z,101264.57
2019-04-30T14:10:40.275Z,101253.78
2019-04-30T14:13:08.668Z,101243.18
2019-04-30T14:15:36.342Z,101239.42
2019-04-30T14:18:03.488Z,101240.70
2019-04-30T14:20:30.450Z,101236.98
2019-04-30T14:22:57.669Z,101240.20
2019-04-30T14:25:24.675Z,101239.66
2019-04-30T14:27:54.472Z,101238.52
2019-04-30T14:30:20.651Z,101231.64
2019-04-30T14:32:50.602Z,101232.80
2019-04-30T14:35:18.641Z,101236.38
2019-04-30T14:37:45.520Z,101233.08
2019-04-30T14:40:14.455Z,101234.94
2019-04-30T14:42:49.050Z,101235.80
2019-04-30T14:45:21.837Z,101229.97
2019-04-30T14:48:00.926Z,101230.34
2019-04-30T14:50:28.591Z,101227.33
2019-04-30T14:53:07.510Z,101232.45
2019-04-30T14:55:44.084Z,101226.84
2019-04-30T14:58:29.375Z,101222.14
2019-04-30T15:01:04.643Z,101224.24
2019-04-30T15:03:31.857Z,101214.67
2019-04-30T15:05:59.040Z,101215.53
2019-04-30T15:08:26.041Z,101208.50
2019-04-30T15:10:53.042Z,101206.67
2019-04-30T15:13:20.057Z,101203.72
2019-04-30T15:15:49.078Z,101201.50
2019-04-30T15:18:15.960Z,101192.94
2019-04-30T15:20:42.923Z,101192.92
2019-04-30T15:23:28.103Z,101189.63
2019-04-30T15:25:55.198Z,101184.55
2019-04-30T15:28:22.134Z,101187.74
2019-04-30T15:30:49.344Z,101191.23
2019-04-30T15:33:23.513Z,101187.01
2019-04-30T15:35:50.632Z,101184.52
2019-04-30T15:38:19.268Z,101187.79
2019-04-30T15:40:46.419Z,101184.86
2019-04-30T15:43:13.388Z,101184.52
2019-04-30T15:45:40.349Z,101187.78
2019-04-30T15:48:08.542Z,101190.23
2019-04-30T15:50:35.738Z,101164.66
2019-04-30T15:53:03.300Z,101184.64
2019-04-30T15:55:30.885Z,101182.84
2019-04-30T15:58:17.444Z,101180.52
2019-04-30T16:00:44.661Z,101181.39
2019-04-30T16:03:17.577Z,101191.75
2019-04-30T16:05:47.131Z,101176.55
2019-04-30T16:08:33.836Z,101176.25
2019-04-30T16:14:13.928Z,101178.31
2019-04-30T16:16:44.110Z,101183.14
2019-04-30T16:19:11.065Z,101182.50
2019-04-30T16:21:38.063Z,101179.37
2019-04-30T16:24:05.006Z,101176.72
2019-04-30T16:26:32.053Z,101173.80
2019-04-30T16:28:59.022Z,101172.34
2019-04-30T16:31:26.024Z,101172.39
2019-04-30T16:33:52.983Z,101166.67
2019-04-30T16:36:19.989Z,101167.09
2019-04-30T16:38:48.623Z,101174.11
2019-04-30T16:43:56.033Z,101166.00
2019-04-30T16:46:22.982Z,101163.34
2019-04-30T16:48:49.902Z,101165.55
2019-04-30T16:51:18.788Z,101167.92
2019-04-30T16:53:45.686Z,101163.95
2019-04-30T16:56:12.626Z,101168.00
2019-04-30T16:58:57.680Z,101166.58
2019-04-30T17:01:24.744Z,101165.60
2019-04-30T17:03:54.329Z,101162.22
2019-04-30T17:06:23.321Z,101161.91
2019-04-30T17:09:01.352Z,101164.47
2019-04-30T17:11:49.006Z,101163.15
2019-04-30T17:14:16.876Z,101162.59
2019-04-30T17:16:43.849Z,101161.50
2019-04-30T17:19:10.786Z,101167.73
2019-04-30T17:21:37.815Z,101167.73
2019-04-30T17:24:04.731Z,101161.59
2019-04-30T17:26:31.726Z,101166.19
2019-04-30T17:28:59.840Z,101162.66
2019-04-30T17:31:26.931Z,101160.03
2019-04-30T17:33:53.861Z,101162.30
2019-04-30T17:36:20.854Z,101165.06
2019-04-30T17:38:47.772Z,101166.04
2019-04-30T17:41:14.726Z,101165.53
2019-04-30T17:43:41.913Z,101160.25
2019-04-30T17:46:08.842Z,101159.17
2019-04-30T17:48:35.777Z,101159.97
2019-04-30T17:51:03.305Z,101164.31
2019-04-30T17:53:31.242Z,101162.00
2019-04-30T17:55:58.200Z,101156.66
2019-04-30T17:58:25.755Z,101163.08
2019-04-30T18:00:55.082Z,101166.00
2019-04-30T18:03:22.009Z,101163.12
2019-04-30T18:05:49.276Z,101156.50
2019-04-30T18:08:16.634Z,101161.16
2019-04-30T18:10:43.561Z,101165.44
2019-04-30T18:13:10.717Z,101162.77
2019-04-30T18:15:37.658Z,101164.09
2019-04-30T18:18:24.987Z,101163.19
2019-04-30T18:20:59.362Z,101166.88
2019-04-30T18:23:37.498Z,101178.41
2019-04-30T18:26:09.089Z,101175.17
2019-04-30T18:28:36.015Z,101170.75
2019-04-30T18:31:03.469Z,101171.14
2019-04-30T18:33:30.404Z,101168.50
2019-04-30T18:35:57.359Z,101169.95
2019-04-30T18:38:24.319Z,101168.84
2019-04-30T18:40:51.264Z,101169.17
2019-04-30T18:43:20.366Z,101167.97
2019-04-30T18:45:49.322Z,101172.95
2019-04-30T18:48:15.948Z,101169.37
2019-04-30T18:50:42.858Z,101171.59
2019-04-30T18:53:15.179Z,101169.37
2019-04-30T18:55:42.111Z,101167.12
2019-04-30T18:58:09.086Z,101164.67
2019-04-30T19:00:39.893Z,101175.61
2019-04-30T19:03:08.658Z,101171.70
2019-04-30T19:05:36.101Z,101174.92
2019-04-30T19:08:10.003Z,101170.69
2019-04-30T19:11:03.765Z,101171.04
2019-04-30T19:13:50.980Z,101172.08
2019-04-30T19:16:40.039Z,101174.77
2019-04-30T19:19:12.734Z,101179.47
2019-04-30T19:21:40.404Z,101182.11
2019-04-30T19:24:08.636Z,101186.17
2019-04-30T19:26:35.849Z,101184.69
2019-04-30T19:29:03.108Z,101183.95
2019-04-30T19:31:30.047Z,101188.41
2019-04-30T19:33:58.875Z,101183.42
2019-04-30T19:36:34.931Z,101186.34
2019-04-30T19:38:54.734Z,101187.34
2019-04-30T19:41:21.670Z,101186.36
2019-04-30T19:43:50.078Z,101185.76
2019-04-30T19:46:18.799Z,101188.75
2019-04-30T19:48:45.921Z,101190.17
2019-04-30T19:51:13.963Z,101190.44
2019-04-30T19:53:40.978Z,101183.82
2019-04-30T19:56:07.919Z,101196.98
2019-04-30T19:58:52.292Z,101187.63
2019-04-30T20:01:03.826Z,101188.31
2019-04-30T20:03:30.780Z,101189.02
2019-04-30T20:05:58.610Z,101188.27
2019-04-30T20:08:25.716Z,101188.33
2019-04-30T20:10:52.648Z,101188.73
2019-04-30T20:13:33.104Z,101194.16
2019-04-30T20:15:49.377Z,101198.20
2019-04-30T20:18:16.538Z,101197.91
2019-04-30T20:20:45.975Z,101196.28
2019-04-30T20:23:12.932Z,101197.81
2019-04-30T20:25:39.875Z,101191.20
2019-04-30T20:28:06.843Z,101195.73
2019-04-30T20:30:33.801Z,101194.02
2019-04-30T20:33:02.978Z,101198.45
2019-04-30T20:35:29.942Z,101194.33
2019-04-30T20:38:31.633Z,101194.11
2019-04-30T20:41:02.802Z,101201.61
2019-04-30T20:43:28.556Z,101198.12
2019-04-30T20:45:55.670Z,101198.61
2019-04-30T20:48:22.697Z,101195.58
2019-04-30T20:50:49.622Z,101198.58
2019-04-30T20:53:16.594Z,101199.25
2019-04-30T20:55:43.531Z,101190.99
2019-04-30T20:58:10.483Z,101197.71
2019-04-30T21:00:37.408Z,101189.24
2019-04-30T21:03:04.470Z,101190.24
2019-04-30T21:05:31.493Z,101188.50
2019-04-30T21:07:58.517Z,101186.80
2019-04-30T21:10:25.442Z,101195.21
2019-04-30T21:12:52.406Z,101185.47
2019-04-30T21:15:19.723Z,101183.77
2019-04-30T21:17:48.375Z,101184.62
2019-04-30T21:20:15.584Z,101179.44
2019-04-30T21:22:42.510Z,101181.60
2019-04-30T21:25:12.328Z,101182.52
2019-04-30T21:27:40.144Z,101182.30
2019-04-30T21:30:07.466Z,101177.61
2019-04-30T21:32:52.737Z,101177.98
2019-04-30T21:35:37.730Z,101177.45
2019-04-30T21:38:04.693Z,101175.17
2019-04-30T21:40:31.654Z,101177.69
2019-04-30T21:42:58.587Z,101175.73
2019-04-30T21:45:25.571Z,101182.88
2019-04-30T21:47:56.455Z,101175.81
2019-04-30T21:50:21.363Z,101174.50
2019-04-30T21:52:49.565Z,101176.89
2019-04-30T21:55:16.546Z,101176.13
2019-04-30T21:57:43.481Z,101175.64
2019-04-30T22:00:13.039Z,101177.81
2019-04-30T22:02:40.540Z,101173.88
2019-04-30T22:05:07.604Z,101170.30
2019-04-30T22:07:34.516Z,101170.70
2019-04-30T22:10:01.495Z,101170.15
2019-04-30T22:12:30.965Z,101162.66
2019-04-30T22:14:57.241Z,101164.95
2019-04-30T22:17:24.171Z,101158.30
2019-04-30T22:19:51.660Z,101157.19
2019-04-30T22:22:19.331Z,101158.17
2019-04-30T22:24:46.392Z,101156.86
2019-04-30T22:27:13.311Z,101157.75
2019-04-30T22:29:42.279Z,101161.64
2019-04-30T22:32:09.407Z,101158.18
2019-04-30T22:34:36.374Z,101153.94
2019-04-30T22:37:03.585Z,101155.19
2019-04-30T22:39:59.364Z,101152.44
2019-04-30T22:42:31.210Z,101154.86
2019-04-30T22:44:58.822Z,101160.73
2019-04-30T22:47:25.738Z,101165.64
2019-04-30T22:49:52.690Z,101167.16
2019-04-30T22:52:21.888Z,101164.55
2019-04-30T22:54:48.456Z,101167.62
2019-04-30T22:57:15.367Z,101171.44
2019-04-30T22:59:49.849Z,101167.09
2019-04-30T23:02:21.399Z,101167.89
2019-04-30T23:04:48.620Z,101168.83
2019-04-30T23:07:15.534Z,101171.63
2019-04-30T23:09:42.479Z,101175.47
2019-04-30T23:12:09.498Z,101171.25
2019-04-30T23:14:36.447Z,101172.50
2019-04-30T23:17:03.665Z,101169.34
2019-04-30T23:19:30.651Z,101165.64
2019-04-30T23:21:57.594Z,101160.13
2019-04-30T23:24:24.514Z,101161.94
2019-04-30T23:26:51.484Z,101158.30
2019-04-30T23:29:18.401Z,101157.45
2019-04-30T23:31:45.371Z,101157.04
2019-04-30T23:34:18.047Z,101149.70
2019-04-30T23:36:41.165Z,101144.29
2019-04-30T23:39:09.390Z,101133.31
2019-04-30T23:41:36.353Z,101138.13
2019-04-30T23:44:03.416Z,101147.28
2019-04-30T23:46:30.381Z,101136.52
2019-04-30T23:48:57.345Z,101137.17
2019-04-30T23:51:24.312Z,101137.12
2019-04-30T23:53:51.363Z,101134.26
2019-04-30T23:56:21.597Z,101127.72
2019-04-30T23:58:48.538Z,101129.77
